Time;durP1;ratioP1;P1;durP2;ratioP2;P2;SDS_P1;SDS_P2;PMS_P1;PMS_P2;Temp;Humidity;BMP_temperature;BMP_pressure;BME280_temperature;BME280_humidity;BME280_pressure;Samples;Min_cycle;Max_cycle;Signal;HPM_P1;HPM_P2
2022/01/10 00:01:03;;;;;;;4.07;2.05;;;22.00;33.30;;;;;;5030195;28;20170;-63
2022/01/10 00:03:30;;;;;;;4.90;1.98;;;21.90;33.00;;;;;;5014977;28;20468;-61
2022/01/10 00:05:56;;;;;;;4.32;1.55;;;21.90;33.20;;;;;;5031815;28;20081;-63
2022/01/10 00:08:23;;;;;;;10.65;1.88;;;21.80;32.90;;;;;;5037350;28;20073;-64
2022/01/10 00:10:51;;;;;;;6.15;1.90;;;21.70;32.40;;;;;;5044912;28;20070;-61
2022/01/10 00:13:19;;;;;;;4.00;2.00;;;21.70;33.30;;;;;;5036224;28;20074;-62
2022/01/10 00:15:46;;;;;;;6.45;1.88;;;21.60;33.70;;;;;;5037449;28;20524;-62
2022/01/10 00:18:12;;;;;;;4.00;1.90;;;21.40;33.10;;;;;;5045458;28;20084;-65
2022/01/10 00:20:39;;;;;;;4.55;1.77;;;21.40;33.60;;;;;;5038710;28;20082;-63
2022/01/10 00:23:09;;;;;;;3.97;1.77;;;21.30;33.70;;;;;;5034114;28;20108;-62
2022/01/10 00:25:35;;;;;;;7.55;2.67;;;21.30;34.10;;;;;;5034225;28;20451;-62
2022/01/10 00:28:02;;;;;;;9.63;2.95;;;21.20;34.00;;;;;;5046705;28;20079;-61
2022/01/10 00:30:28;;;;;;;7.88;3.00;;;21.00;34.40;;;;;;5031885;28;20083;-63
2022/01/10 00:32:55;;;;;;;15.40;4.65;;;21.00;35.00;;;;;;5032272;28;20093;-62
2022/01/10 00:35:22;;;;;;;4.78;3.33;;;20.90;35.40;;;;;;5038578;28;20132;-65
2022/01/10 00:37:49;;;;;;;7.28;3.53;;;20.80;34.80;;;;;;5036327;28;20073;-63
2022/01/10 00:40:17;;;;;;;8.65;3.80;;;20.80;34.70;;;;;;5044577;28;20081;-62
2022/01/10 00:42:52;;;;;;;12.77;3.83;;;20.70;34.60;;;;;;5038230;28;20098;-64
2022/01/10 00:45:23;;;;;;;8.75;3.35;;;20.60;35.10;;;;;;5034546;28;20152;-62
2022/01/10 00:47:50;;;;;;;11.68;3.92;;;20.50;35.90;;;;;;5034819;28;20132;-64
2022/01/10 00:50:17;;;;;;;11.68;4.68;;;20.40;35.60;;;;;;5037181;28;20096;-62
2022/01/10 00:52:44;;;;;;;11.93;5.00;;;20.30;35.60;;;;;;5041473;28;20074;-66
2022/01/10 00:55:11;;;;;;;10.68;5.15;;;20.20;35.90;;;;;;5036758;28;20074;-64
2022/01/10 00:57:38;;;;;;;12.63;5.93;;;20.10;36.60;;;;;;5032706;28;20070;-62
2022/01/10 01:00:07;;;;;;;19.92;5.90;;;20.00;36.80;;;;;;5036095;28;20105;-61
2022/01/10 01:02:34;;;;;;;20.77;7.22;;;19.90;37.30;;;;;;5046871;28;20112;-64
2022/01/10 01:05:04;;;;;;;21.95;8.00;;;19.80;37.40;;;;;;5040497;28;20069;-65
2022/01/10 01:07:31;;;;;;;19.05;8.68;;;19.70;37.60;;;;;;5037282;28;20074;-64
2022/01/10 01:10:32;;;;;;;22.67;8.95;;;19.60;38.40;;;;;;5039131;28;20520;-62
2022/01/10 01:13:09;;;;;;;23.42;9.23;;;19.50;37.70;;;;;;5036346;28;20176;-64
2022/01/10 01:15:55;;;;;;;20.17;8.95;;;19.40;38.00;;;;;;5046560;28;20447;-63
2022/01/10 01:18:44;;;;;;;17.27;7.80;;;19.30;38.10;;;;;;5039680;28;20506;-62
2022/01/10 01:24:07;;;;;;;20.38;8.00;;;19.20;38.10;;;;;;5034942;28;20080;-64
2022/01/10 01:26:45;;;;;;;20.80;7.53;;;19.00;38.30;;;;;;5033856;28;20508;-64
2022/01/10 01:29:21;;;;;;;16.25;6.97;;;19.00;38.30;;;;;;5033082;28;20088;-64
2022/01/10 01:31:48;;;;;;;22.75;7.50;;;18.90;38.50;;;;;;5050462;28;20578;-63
2022/01/10 01:34:16;;;;;;;18.17;7.88;;;18.80;38.90;;;;;;5066456;28;20081;-62
2022/01/10 01:36:47;;;;;;;18.88;7.30;;;18.80;39.10;;;;;;5035245;28;20532;-64
2022/01/10 01:39:20;;;;;;;14.48;7.45;;;18.70;39.20;;;;;;5018588;28;20081;-63
2022/01/10 01:41:47;;;;;;;17.90;6.90;;;18.60;39.40;;;;;;5038389;28;20090;-63
2022/01/10 01:44:14;;;;;;;20.80;8.15;;;18.50;39.60;;;;;;5034303;28;20125;-62
2022/01/10 01:46:42;;;;;;;17.63;8.35;;;18.50;39.60;;;;;;5035636;28;20139;-62
2022/01/10 01:49:10;;;;;;;28.00;9.45;;;18.40;39.30;;;;;;5048893;28;20095;-61
2022/01/10 01:51:36;;;;;;;25.70;8.65;;;18.30;39.70;;;;;;5036068;28;20074;-63
2022/01/10 01:54:04;;;;;;;29.10;9.05;;;18.30;39.70;;;;;;5036596;28;20100;-62
2022/01/10 01:56:31;;;;;;;26.67;8.73;;;18.20;39.80;;;;;;5045996;28;20587;-64
2022/01/10 01:58:57;;;;;;;27.35;8.60;;;18.10;39.90;;;;;;5040685;28;20131;-61
2022/01/10 02:01:25;;;;;;;23.55;8.65;;;18.10;40.20;;;;;;5041420;28;20161;-62
2022/01/10 02:03:53;;;;;;;30.67;8.35;;;18.00;40.30;;;;;;5051723;28;20548;-62
2022/01/10 02:06:19;;;;;;;24.65;9.35;;;17.90;40.10;;;;;;5048535;28;20076;-62
2022/01/10 02:08:46;;;;;;;32.13;12.18;;;17.90;40.40;;;;;;5034253;28;20164;-66
2022/01/10 02:11:14;;;;;;;36.05;12.50;;;17.80;40.90;;;;;;5035754;28;20065;-63
2022/01/10 02:13:41;;;;;;;37.15;13.57;;;17.70;40.70;;;;;;5037165;28;20108;-65
2022/01/10 02:16:10;;;;;;;36.83;14.50;;;17.60;40.90;;;;;;5034143;28;20107;-63
2022/01/10 02:18:37;;;;;;;31.85;15.18;;;17.50;41.80;;;;;;5036421;28;20542;-63
2022/01/10 02:21:05;;;;;;;35.92;13.65;;;17.40;41.90;;;;;;5039893;28;20164;-62
2022/01/10 02:23:33;;;;;;;30.83;13.52;;;17.30;42.50;;;;;;5034941;28;20094;-65
2022/01/10 02:26:00;;;;;;;37.55;13.50;;;17.20;42.90;;;;;;5046871;28;20078;-64
2022/01/10 02:28:27;;;;;;;30.40;12.45;;;17.00;43.20;;;;;;5035389;28;20086;-63
2022/01/10 02:30:57;;;;;;;35.97;13.60;;;16.90;43.60;;;;;;5039513;28;20446;-62
2022/01/10 02:33:30;;;;;;;29.75;11.98;;;16.80;43.80;;;;;;5036218;28;20160;-63
2022/01/10 02:38:27;;;;;;;38.35;13.25;;;16.60;44.50;;;;;;5037062;28;20108;-62
2022/01/10 02:40:55;;;;;;;39.70;13.52;;;16.60;44.60;;;;;;5036079;28;20082;-62
2022/01/10 02:43:22;;;;;;;31.48;12.23;;;16.40;44.80;;;;;;5040445;28;20251;-62
2022/01/10 02:45:48;;;;;;;;;;;16.40;45.10;;;;;;5039707;28;20442;-62
2022/01/10 02:48:14;;;;;;;39.60;12.00;;;16.30;45.30;;;;;;5047756;28;20043;-65
2022/01/10 02:50:41;;;;;;;37.10;12.25;;;16.20;45.50;;;;;;5036952;28;20080;-61
2022/01/10 02:53:07;;;;;;;;;;;16.10;45.90;;;;;;5034824;28;20168;-61
2022/01/10 02:55:33;;;;;;;34.42;12.18;;;16.00;46.10;;;;;;5040232;28;19958;-64
2022/01/10 02:57:59;;;;;;;;;;;15.90;46.30;;;;;;5040361;28;20092;-63
2022/01/10 03:00:27;;;;;;;35.78;12.75;;;15.80;46.80;;;;;;5048545;28;19957;-62
2022/01/10 03:02:55;;;;;;;35.42;12.00;;;15.70;46.90;;;;;;5044862;28;20515;-62
2022/01/10 03:05:23;;;;;;;33.92;11.35;;;15.70;47.10;;;;;;5039152;28;20078;-62
2022/01/10 03:07:52;;;;;;;39.85;12.13;;;15.60;47.40;;;;;;5045723;28;20089;-62
2022/01/10 03:10:19;;;;;;;42.03;12.30;;;15.50;47.70;;;;;;5050451;28;20096;-64
2022/01/10 03:12:46;;;;;;;30.98;11.98;;;15.50;48.00;;;;;;5041403;28;20438;-63
2022/01/10 03:15:12;;;;;;;;;;;15.40;48.20;;;;;;5040453;28;20089;-63
2022/01/10 03:17:39;;;;;;;45.17;22.65;;;15.40;48.00;;;;;;5043088;28;20400;-64
2022/01/10 03:20:08;;;;;;;39.22;11.20;;;15.30;48.10;;;;;;5038303;28;20093;-63
2022/01/10 03:22:35;;;;;;;28.60;10.15;;;15.30;47.80;;;;;;5033072;28;20086;-63
2022/01/10 03:25:02;;;;;;;29.10;10.70;;;15.30;48.00;;;;;;5034998;28;20139;-64
2022/01/10 03:27:28;;;;;;;25.00;9.30;;;15.30;48.30;;;;;;5045802;28;20070;-63
2022/01/10 03:29:54;;;;;;;;;;;15.30;47.90;;;;;;5039691;28;20161;-63
2022/01/10 03:32:21;;;;;;;25.77;8.80;;;15.30;47.70;;;;;;5049265;28;20393;-62
2022/01/10 03:34:47;;;;;;;;;;;15.30;48.00;;;;;;5047949;28;20169;-63
2022/01/10 03:37:14;;;;;;;19.38;6.60;;;15.30;47.60;;;;;;5053121;28;19957;-65
2022/01/10 03:39:40;;;;;;;21.08;6.55;;;15.30;47.00;;;;;;5031979;28;20082;-63
2022/01/10 03:42:07;;;;;;;26.20;6.35;;;15.40;46.80;;;;;;5035719;28;20136;-64
2022/01/10 03:44:33;;;;;;;16.25;6.47;;;15.50;46.10;;;;;;5035498;28;20499;-62
2022/01/10 03:47:02;;;;;;;20.45;6.30;;;15.50;45.90;;;;;;5038778;28;20070;-65
2022/01/10 03:49:28;;;;;;;14.40;5.80;;;15.60;46.10;;;;;;5031327;28;20066;-64
2022/01/10 03:51:57;;;;;;;;;;;15.60;45.70;;;;;;5038751;28;20071;-63
2022/01/10 03:54:24;;;;;;;26.95;6.13;;;15.60;46.00;;;;;;5035133;28;19984;-62
2022/01/10 03:56:50;;;;;;;;;;;15.50;46.30;;;;;;5047115;28;20112;-63
2022/01/10 03:59:16;;;;;;;24.75;7.55;;;15.50;46.70;;;;;;5039022;28;19965;-63
2022/01/10 04:01:42;;;;;;;;;;;15.50;46.80;;;;;;5038747;28;20078;-65
2022/01/10 04:04:09;;;;;;;37.17;16.73;;;15.40;46.80;;;;;;5045896;28;19957;-62
2022/01/10 04:06:35;;;;;;;;;;;15.40;47.20;;;;;;5032707;28;20068;-63
2022/01/10 04:09:03;;;;;;;43.95;18.63;;;15.30;47.30;;;;;;5032538;28;19965;-62
2022/01/10 04:11:29;;;;;;;40.03;18.58;;;15.20;47.40;;;;;;5032144;28;20081;-63
2022/01/10 04:13:56;;;;;;;55.83;19.52;;;15.20;48.50;;;;;;5033829;28;20425;-62
2022/01/10 04:16:22;;;;;;;38.83;19.27;;;15.10;48.30;;;;;;5034251;28;20074;-65
2022/01/10 04:18:49;;;;;;;39.38;17.38;;;15.00;48.40;;;;;;5047212;28;20081;-62
2022/01/10 04:21:15;;;;;;;38.08;16.52;;;14.90;48.70;;;;;;5032668;28;20078;-64
2022/01/10 04:23:41;;;;;;;;;;;14.90;48.80;;;;;;5032834;28;20101;-64
2022/01/10 04:26:07;;;;;;;35.05;12.25;;;14.90;49.10;;;;;;5030784;28;20388;-62
2022/01/10 04:28:34;;;;;;;25.30;10.85;;;14.80;49.10;;;;;;5033025;28;20224;-62
2022/01/10 04:31:00;;;;;;;;;;;14.70;49.00;;;;;;5032136;28;20487;-62
2022/01/10 04:33:29;;;;;;;21.45;8.90;;;14.70;49.00;;;;;;5034065;28;19957;-63
2022/01/10 04:35:57;;;;;;;24.77;9.63;;;14.70;49.00;;;;;;5044129;28;20191;-63
2022/01/10 04:38:25;;;;;;;22.70;8.15;;;14.70;48.30;;;;;;5034012;28;20110;-63
2022/01/10 04:40:51;;;;;;;32.97;9.07;;;14.70;48.80;;;;;;5041920;28;20077;-63
2022/01/10 04:43:17;;;;;;;;;;;14.60;47.40;;;;;;5038686;28;20119;-66
2022/01/10 04:46:12;;;;;;;33.17;10.70;;;;;;;;;;5105388;27;20481;-66
2022/01/10 04:48:39;;;;;;;34.40;11.38;;;;;;;;;;5106326;28;20016;-67
2022/01/10 04:51:16;;;;;;;57.85;38.45;;;;;;;;;;5107085;28;20048;-65
2022/01/10 04:53:48;;;;;;;43.38;20.90;;;16.50;58.90;;;;;;5106759;28;20110;-67
2022/01/10 04:56:16;;;;;;;31.92;15.35;;;18.50;54.80;;;;;;5105857;28;20547;-65
2022/01/10 04:58:42;;;;;;;31.48;11.70;;;;;;;;;;5106019;28;20545;-66
2022/01/10 05:01:10;;;;;;;34.88;12.50;;;18.00;40.80;;;;;;5104571;28;20160;-65
2022/01/10 05:03:37;;;;;;;33.13;12.65;;;18.70;59.30;;;;;;5104230;28;20081;-65
2022/01/10 05:06:05;;;;;;;31.35;11.48;;;19.60;38.70;;;;;;5105319;28;20023;-63
2022/01/10 05:08:31;;;;;;;36.88;12.20;;;20.10;55.20;;;;;;5105246;28;20037;-65
2022/01/10 05:10:58;;;;;;;27.80;10.80;;;20.40;36.30;;;;;;5104004;28;20071;-66
2022/01/10 05:13:25;;;;;;;33.90;12.07;;;20.60;36.10;;;;;;5105136;28;20133;-66
2022/01/10 05:15:52;;;;;;;32.55;11.27;;;20.50;36.00;;;;;;5101647;28;20082;-66
2022/01/10 05:18:20;;;;;;;31.65;11.85;;;20.40;35.80;;;;;;5104355;28;20096;-65
2022/01/10 05:20:48;;;;;;;27.05;11.50;;;21.00;35.50;;;;;;5104563;28;20121;-66
2022/01/10 05:23:14;;;;;;;28.77;11.13;;;21.10;34.60;;;;;;5088251;28;20113;-66
2022/01/10 05:25:41;;;;;;;30.02;10.98;;;21.10;33.70;;;;;;5086235;28;20118;-65
2022/01/10 05:28:09;;;;;;;28.42;9.50;;;21.50;33.00;;;;;;5103674;28;20072;-63
2022/01/10 05:30:38;;;;;;;21.65;8.68;;;21.40;32.10;;;;;;5105003;28;20548;-64
2022/01/10 05:33:07;;;;;;;25.20;8.02;;;21.40;32.10;;;;;;5104791;28;20085;-64
2022/01/10 05:35:39;;;;;;;17.48;6.03;;;21.40;32.90;;;;;;5103405;28;20405;-65
2022/01/10 05:38:05;;;;;;;18.38;6.57;;;21.40;31.40;;;;;;5104029;28;20101;-65
2022/01/10 05:40:32;;;;;;;25.20;6.82;;;21.50;32.10;;;;;;5103621;28;20129;-67
2022/01/10 05:42:58;;;;;;;12.88;5.97;;;21.60;31.90;;;;;;5104642;28;20072;-64
2022/01/10 05:45:25;;;;;;;15.18;6.28;;;21.40;31.80;;;;;;5102894;28;20165;-65
2022/01/10 05:47:52;;;;;;;28.63;6.13;;;21.30;32.50;;;;;;5102428;28;20084;-66
2022/01/10 05:50:31;;;;;;;22.83;6.18;;;21.10;32.60;;;;;;5099166;28;20165;-64
2022/01/10 05:52:58;;;;;;;15.13;6.13;;;20.80;32.60;;;;;;5102245;28;20087;-65
2022/01/10 05:55:25;;;;;;;15.27;6.00;;;20.80;33.00;;;;;;5099802;28;20138;-65
2022/01/10 05:57:51;;;;;;;15.73;5.75;;;20.80;33.60;;;;;;5086409;28;20178;-65
2022/01/10 06:00:18;;;;;;;12.32;5.43;;;20.80;33.70;;;;;;5089074;28;20401;-66
2022/01/10 06:02:44;;;;;;;22.20;5.72;;;20.80;34.10;;;;;;5089069;28;20458;-64
2022/01/10 06:05:11;;;;;;;16.80;5.82;;;20.30;33.70;;;;;;5073058;28;20120;-63
2022/01/10 06:07:37;;;;;;;13.40;5.18;;;20.00;34.30;;;;;;5088532;28;20068;-65
2022/01/10 06:10:09;;;;;;;11.80;5.05;;;20.00;35.00;;;;;;5090571;28;20112;-66
2022/01/10 06:12:36;;;;;;;13.90;4.53;;;19.70;48.50;;;;;;5071858;28;20020;-65
2022/01/10 06:15:02;;;;;;;12.23;5.18;;;20.30;55.90;;;;;;5089443;28;20049;-64
2022/01/10 06:17:29;;;;;;;15.73;4.13;;;20.00;34.90;;;;;;5088120;28;20084;-64
2022/01/10 06:19:55;;;;;;;;;;;19.70;34.70;;;;;;5099306;28;20220;-65
2022/01/10 06:22:21;;;;;;;10.00;3.90;;;19.70;34.60;;;;;;5089607;28;19999;-66
2022/01/10 06:24:48;;;;;;;17.77;3.88;;;19.30;35.30;;;;;;5088374;28;20081;-65
2022/01/10 06:27:14;;;;;;;12.80;3.30;;;19.10;35.00;;;;;;5089505;28;20076;-64
2022/01/10 06:29:40;;;;;;;5.13;3.03;;;19.00;34.60;;;;;;5089433;28;20095;-66
2022/01/10 06:32:07;;;;;;;;;;;18.90;34.70;;;;;;5090065;28;20091;-65
2022/01/10 06:34:33;;;;;;;8.38;3.25;;;18.90;34.70;;;;;;5087590;28;19963;-65
2022/01/10 06:37:01;;;;;;;6.10;2.75;;;18.90;34.50;;;;;;5085985;28;20117;-64
2022/01/10 06:39:28;;;;;;;8.98;2.80;;;18.70;38.90;;;;;;5086564;28;20172;-64
2022/01/10 06:41:54;;;;;;;9.57;2.90;;;18.70;34.80;;;;;;5088096;28;20076;-65
2022/01/10 06:44:20;;;;;;;;;;;18.70;34.90;;;;;;5088780;28;20115;-64
2022/01/10 06:46:47;;;;;;;6.13;3.05;;;18.70;34.80;;;;;;5089186;28;19981;-63
2022/01/10 06:49:13;;;;;;;6.45;2.60;;;;;;;;;;5070968;28;20160;-66
2022/01/10 06:52:45;;;;;;;5.57;2.03;;;18.20;35.00;;;;;;5125089;27;20436;-66
2022/01/10 06:55:12;;;;;;;3.97;1.95;;;18.10;35.70;;;;;;5101758;28;20068;-64
2022/01/10 06:57:38;;;;;;;6.25;2.35;;;17.90;36.00;;;;;;5107654;28;20164;-65
2022/01/10 07:00:06;;;;;;;6.88;2.55;;;17.90;36.20;;;;;;5105068;28;20065;-63
2022/01/10 07:02:32;;;;;;;8.25;2.58;;;17.80;36.50;;;;;;5107165;28;20986;-67
2022/01/10 07:04:58;;;;;;;;;;;17.80;36.60;;;;;;5107691;28;20395;-64
2022/01/10 07:07:25;;;;;;;4.72;2.47;;;17.70;37.10;;;;;;5109248;28;19964;-64
2022/01/10 07:09:51;;;;;;;;;;;17.70;37.20;;;;;;5107948;28;20530;-66
2022/01/10 07:12:17;;;;;;;3.95;1.95;;;17.70;37.10;;;;;;5106234;28;20073;-65
2022/01/10 07:14:43;;;;;;;;;;;17.60;36.80;;;;;;5105854;28;20084;-64
2022/01/10 07:17:10;;;;;;;9.00;1.90;;;17.60;37.10;;;;;;5106780;28;19956;-65
2022/01/10 07:19:36;;;;;;;7.50;2.15;;;17.60;36.70;;;;;;5105029;28;20580;-66
2022/01/10 07:22:04;;;;;;;6.53;2.03;;;17.50;36.80;;;;;;5107794;28;20079;-64
2022/01/10 07:24:32;;;;;;;8.20;1.73;;;17.40;36.80;;;;;;5106004;28;20084;-64
2022/01/10 07:26:59;;;;;;;6.00;1.77;;;17.40;37.00;;;;;;5105398;28;20073;-65
2022/01/10 07:29:25;;;;;;;7.57;2.70;;;17.30;37.10;;;;;;5105018;28;20080;-64
2022/01/10 07:31:51;;;;;;;;;;;17.30;37.00;;;;;;5107609;28;20137;-64
2022/01/10 07:34:18;;;;;;;6.68;2.90;;;17.20;37.20;;;;;;5107451;28;19961;-65
2022/01/10 07:36:44;;;;;;;;;;;17.00;37.60;;;;;;5111626;28;20109;-62
2022/01/10 07:39:11;;;;;;;9.35;3.03;;;16.90;38.20;;;;;;5109992;28;19970;-65
2022/01/10 07:41:38;;;;;;;5.72;2.53;;;16.70;38.20;;;;;;5105550;28;20076;-63
2022/01/10 07:44:04;;;;;;;5.80;1.95;;;16.70;38.60;;;;;;5123444;27;20610;-65
2022/01/10 07:46:31;;;;;;;4.43;1.75;;;16.60;38.80;;;;;;5107622;28;20088;-64
2022/01/10 07:48:57;;;;;;;;;;;16.70;38.50;;;;;;5107544;28;20083;-65
2022/01/10 07:51:24;;;;;;;6.07;1.95;;;16.50;38.30;;;;;;5106475;28;20031;-64
2022/01/10 07:53:51;;;;;;;6.75;1.92;;;16.50;39.00;;;;;;5107656;28;20077;-63
2022/01/10 07:56:17;;;;;;;4.85;2.15;;;16.40;39.20;;;;;;5106501;28;20411;-64
2022/01/10 07:58:46;;;;;;;3.33;1.63;;;16.50;47.80;;;;;;5107558;28;20027;-66
2022/01/10 08:01:13;;;;;;;13.48;2.25;;;17.00;47.80;;;;;;5106899;28;20076;-64
2022/01/10 08:03:39;;;;;;;5.70;2.00;;;16.70;43.80;;;;;;5094489;27;20097;-64
2022/01/10 08:06:05;;;;;;;;;;;16.80;38.50;;;;;;5092068;28;20077;-65
2022/01/10 08:08:34;;;;;;;9.45;2.10;;;16.90;38.60;;;;;;5091006;28;19962;-64
2022/01/10 08:11:01;;;;;;;4.88;2.22;;;16.70;38.00;;;;;;5092604;28;20099;-63
2022/01/10 08:13:28;;;;;;;8.02;2.30;;;16.30;56.00;;;;;;5093119;28;20063;-64
2022/01/10 08:15:54;;;;;;;7.30;2.58;;;16.20;40.70;;;;;;5090715;28;20092;-64
2022/01/10 08:18:21;;;;;;;11.75;2.33;;;15.80;56.80;;;;;;5092590;28;20024;-64
2022/01/10 08:20:47;;;;;;;6.47;2.25;;;15.90;54.80;;;;;;5093187;28;20072;-67
2022/01/10 08:23:14;;;;;;;;;;;16.00;39.70;;;;;;5092559;28;20133;-65
2022/01/10 08:25:41;;;;;;;7.10;2.42;;;16.20;59.10;;;;;;5090996;28;20382;-64
2022/01/10 08:28:07;;;;;;;7.75;2.55;;;16.30;58.60;;;;;;5092493;28;20086;-65
2022/01/10 08:30:35;;;;;;;5.65;2.67;;;;;;;;;;5090573;28;20088;-65
2022/01/10 08:33:01;;;;;;;12.27;3.22;;;;;;;;;;5093583;28;20531;-65
2022/01/10 08:35:28;;;;;;;4.72;2.85;;;16.00;60.60;;;;;;5093249;28;20083;-66
2022/01/10 08:37:54;;;;;;;6.70;2.65;;;15.90;40.10;;;;;;5092705;28;20438;-64
2022/01/10 08:40:20;;;;;;;;;;;15.80;40.70;;;;;;5094216;28;20099;-66
2022/01/10 08:42:49;;;;;;;11.27;3.20;;;15.70;40.80;;;;;;5092701;28;20430;-65
2022/01/10 08:45:16;;;;;;;14.65;3.33;;;16.20;83.60;;;;;;5091749;28;20436;-65
2022/01/10 08:47:42;;;;;;;;;;;15.70;42.80;;;;;;5093673;28;20078;-64
2022/01/10 08:50:10;;;;;;;6.28;3.05;;;15.80;42.30;;;;;;5090640;28;19956;-65
2022/01/10 08:52:39;;;;;;;12.05;3.58;;;16.00;42.80;;;;;;5074716;28;20539;-63
2022/01/10 08:55:08;;;;;;;8.93;2.92;;;15.30;42.70;;;;;;5092603;28;20488;-65
2022/01/10 08:57:36;;;;;;;7.78;3.10;;;15.10;42.30;;;;;;5088853;28;20072;-66
2022/01/10 09:00:05;;;;;;;8.88;2.83;;;15.30;69.00;;;;;;5091869;28;20181;-67
2022/01/10 09:02:31;;;;;;;7.90;2.88;;;14.90;43.30;;;;;;5091654;28;20221;-68
2022/01/10 09:04:57;;;;;;;;;;;14.60;43.70;;;;;;5090582;28;20126;-65
2022/01/10 09:07:24;;;;;;;10.40;3.13;;;14.70;45.00;;;;;;5090318;28;19976;-65
2022/01/10 09:09:50;;;;;;;;;;;14.90;44.60;;;;;;5091653;28;20071;-65
2022/01/10 09:12:16;;;;;;;6.75;3.10;;;14.70;44.70;;;;;;5092139;28;19973;-65
2022/01/10 09:14:43;;;;;;;6.25;3.13;;;14.60;44.80;;;;;;5089916;28;20077;-65
2022/01/10 09:17:09;;;;;;;9.52;3.35;;;14.70;45.10;;;;;;5090696;28;20065;-65
2022/01/10 09:19:36;;;;;;;7.18;3.22;;;14.60;45.20;;;;;;5089338;28;20430;-65
2022/01/10 09:22:02;;;;;;;9.18;3.20;;;14.60;45.50;;;;;;5090076;28;20112;-66
2022/01/10 09:24:29;;;;;;;10.93;3.28;;;14.60;45.80;;;;;;5090502;28;20084;-65
2022/01/10 09:26:56;;;;;;;;;;;14.60;46.20;;;;;;5091458;28;20170;-64
2022/01/10 09:29:24;;;;;;;8.88;3.28;;;14.30;46.10;;;;;;5089916;28;20011;-65
2022/01/10 09:31:51;;;;;;;10.13;3.90;;;14.30;46.40;;;;;;5089652;28;20570;-65
2022/01/10 09:34:17;;;;;;;9.70;4.60;;;14.10;64.30;;;;;;5092148;28;20107;-64
2022/01/10 09:36:44;;;;;;;19.95;5.10;;;14.10;47.10;;;;;;5093471;28;20083;-64
2022/01/10 09:39:13;;;;;;;;;;;14.10;47.00;;;;;;5091530;28;20464;-67
2022/01/10 09:41:40;;;;;;;9.93;3.97;;;13.20;63.90;;;;;;5089591;28;19956;-65
2022/01/10 09:44:09;;;;;;;10.02;3.92;;;13.40;67.80;;;;;;5089091;28;20483;-64
2022/01/10 09:46:36;;;;;;;10.35;3.33;;;13.90;77.50;;;;;;5075045;28;20507;-64
2022/01/10 09:49:03;;;;;;;9.93;3.35;;;13.10;49.80;;;;;;5090581;28;20071;-65
2022/01/10 09:51:32;;;;;;;10.23;2.60;;;13.60;80.00;;;;;;5092754;28;20542;-65
2022/01/10 09:54:01;;;;;;;4.88;2.30;;;13.50;48.20;;;;;;5092249;28;20071;-64
2022/01/10 09:56:28;;;;;;;3.75;2.15;;;13.50;46.30;;;;;;5090930;28;20095;-65
2022/01/10 09:58:55;;;;;;;6.18;2.30;;;;;;;;;;5089168;28;20071;-63
2022/01/10 10:01:23;;;;;;;9.63;2.20;;;13.90;70.50;;;;;;5090588;28;20086;-64
2022/01/10 10:03:51;;;;;;;6.28;1.70;;;13.70;46.60;;;;;;5090040;28;20135;-65
2022/01/10 10:06:18;;;;;;;3.58;1.77;;;13.60;46.70;;;;;;5092837;28;20407;-65
2022/01/10 10:08:45;;;;;;;5.57;1.30;;;13.50;46.60;;;;;;5091845;28;20073;-64
2022/01/10 10:11:12;;;;;;;3.25;1.23;;;13.50;45.90;;;;;;5088980;28;20103;-65
2022/01/10 10:13:44;;;;;;;2.65;1.40;;;13.70;45.40;;;;;;5088969;28;20537;-64
2022/01/10 10:16:17;;;;;;;2.47;1.35;;;13.80;45.30;;;;;;5090525;28;20079;-64
2022/01/10 10:18:46;;;;;;;4.35;1.40;;;13.80;44.30;;;;;;5089091;28;20068;-64
2022/01/10 10:21:14;;;;;;;3.33;1.23;;;13.90;44.10;;;;;;5091873;28;20093;-64
2022/01/10 10:23:46;;;;;;;2.97;1.20;;;14.00;54.20;;;;;;5087925;28;20108;-64
2022/01/10 10:26:16;;;;;;;3.20;1.30;;;13.90;43.70;;;;;;5089483;28;20095;-65
2022/01/10 10:28:45;;;;;;;3.42;1.02;;;14.00;43.40;;;;;;5088602;28;20089;-64
2022/01/10 10:31:13;;;;;;;2.80;1.00;;;14.00;43.00;;;;;;5089715;28;20134;-66
2022/01/10 10:33:50;;;;;;;1.75;0.90;;;14.00;42.70;;;;;;5088119;28;20167;-64
2022/01/10 10:36:17;;;;;;;3.55;1.00;;;14.10;42.80;;;;;;5087474;28;20163;-64
2022/01/10 10:38:43;;;;;;;5.43;0.90;;;14.10;42.40;;;;;;5088350;28;20479;-63
2022/01/10 10:41:13;;;;;;;5.30;1.05;;;14.10;42.80;;;;;;5090016;28;20069;-64
2022/01/10 10:43:42;;;;;;;5.28;0.88;;;14.10;43.50;;;;;;5088603;28;20072;-64
2022/01/10 10:46:17;;;;;;;3.58;0.82;;;14.10;43.50;;;;;;5091068;28;20124;-63
2022/01/10 10:48:48;;;;;;;2.72;0.90;;;14.00;43.30;;;;;;5087909;28;20072;-64
2022/01/10 10:51:15;;;;;;;4.15;1.15;;;14.10;43.50;;;;;;5089700;28;20104;-65
2022/01/10 10:53:42;;;;;;;2.63;0.73;;;14.00;43.80;;;;;;5089774;28;20077;-64
2022/01/10 10:56:09;;;;;;;11.05;0.93;;;14.00;43.70;;;;;;5089152;28;20087;-65
2022/01/10 10:58:36;;;;;;;1.63;0.63;;;14.00;43.40;;;;;;5087639;28;20151;-65
2022/01/10 11:01:03;;;;;;;1.45;0.50;;;14.00;89.00;;;;;;5087817;28;20171;-64
2022/01/10 11:03:30;;;;;;;4.32;0.95;;;13.90;42.50;;;;;;5088620;28;20111;-65
2022/01/10 11:05:59;;;;;;;3.53;0.88;;;13.60;64.10;;;;;;5089086;28;20096;-65
2022/01/10 11:08:28;;;;;;;5.80;0.93;;;13.90;64.20;;;;;;5089822;28;20076;-66
2022/01/10 11:10:55;;;;;;;1.27;0.85;;;13.80;47.00;;;;;;5089684;28;20091;-64
2022/01/10 11:13:23;;;;;;;4.22;0.80;;;13.80;43.20;;;;;;5089360;28;20079;-65
2022/01/10 11:15:50;;;;;;;0.95;0.80;;;13.70;43.40;;;;;;5089790;28;20069;-64
2022/01/10 11:18:16;;;;;;;7.45;1.40;;;13.60;43.80;;;;;;5090015;28;20104;-65
2022/01/10 11:20:48;;;;;;;2.72;1.20;;;13.60;44.00;;;;;;5088320;28;20119;-64
2022/01/10 11:23:15;;;;;;;6.30;1.20;;;13.30;57.10;;;;;;5089571;28;20437;-64
2022/01/10 11:25:42;;;;;;;4.15;1.15;;;13.90;70.00;;;;;;5087887;28;20522;-64
2022/01/10 11:28:29;;;;;;;5.85;1.10;;;13.60;43.80;;;;;;5092567;28;20087;-64
2022/01/10 11:31:06;;;;;;;4.45;1.50;;;13.60;44.30;;;;;;5088843;28;20503;-64
2022/01/10 11:33:35;;;;;;;2.92;1.10;;;13.50;44.60;;;;;;5088292;28;20496;-65
2022/01/10 11:36:07;;;;;;;5.95;1.05;;;13.60;45.00;;;;;;5087999;28;20069;-67
2022/01/10 11:38:49;;;;;;;2.63;1.13;;;13.50;45.00;;;;;;5089987;28;20099;-65
2022/01/10 11:41:21;;;;;;;2.83;1.30;;;13.40;45.30;;;;;;5093640;28;20083;-66
2022/01/10 11:44:17;;;;;;;3.83;1.38;;;13.30;45.90;;;;;;5092558;28;20173;-63
2022/01/10 11:46:43;;;;;;;3.08;1.30;;;13.30;46.70;;;;;;5095336;28;20477;-66
2022/01/10 11:49:11;;;;;;;4.65;1.05;;;13.10;46.30;;;;;;5093711;28;20069;-66
2022/01/10 11:51:39;;;;;;;1.80;1.20;;;13.10;46.60;;;;;;5091562;28;20149;-66
2022/01/10 11:54:35;;;;;;;4.43;1.20;;;13.00;46.90;;;;;;5093455;28;20075;-66
2022/01/10 11:57:05;;;;;;;8.38;1.30;;;12.90;47.10;;;;;;5092063;28;20772;-65
2022/01/10 11:59:40;;;;;;;2.17;1.00;;;13.00;47.10;;;;;;5090755;28;20167;-65
2022/01/10 12:02:18;;;;;;;4.95;1.13;;;13.00;47.70;;;;;;5093316;28;20088;-64
2022/01/10 12:04:53;;;;;;;6.57;1.10;;;13.00;47.70;;;;;;5091926;28;20526;-64
2022/01/10 12:07:22;;;;;;;4.28;1.00;;;13.00;47.60;;;;;;5092728;28;20479;-65
2022/01/10 12:09:50;;;;;;;1.83;0.90;;;12.90;48.40;;;;;;5092020;28;20081;-64
2022/01/10 12:12:18;;;;;;;5.88;0.90;;;12.90;48.50;;;;;;5091411;28;20092;-64
2022/01/10 12:14:47;;;;;;;4.20;1.23;;;12.60;48.10;;;;;;5090761;28;20437;-66
2022/01/10 12:17:14;;;;;;;4.05;1.00;;;12.50;49.00;;;;;;5092791;28;20073;-66
2022/01/10 12:19:41;;;;;;;6.70;1.23;;;12.40;49.10;;;;;;5091902;28;20156;-66
2022/01/10 12:22:09;;;;;;;6.45;1.05;;;12.10;49.30;;;;;;5091920;28;20069;-65
2022/01/10 12:24:37;;;;;;;3.63;1.27;;;12.10;49.40;;;;;;5091652;28;20112;-65
2022/01/10 12:27:05;;;;;;;3.35;1.25;;;12.30;50.60;;;;;;5091050;28;20076;-64
2022/01/10 12:29:33;;;;;;;8.80;1.88;;;12.20;49.60;;;;;;5093545;28;20202;-65
2022/01/10 12:32:00;;;;;;;1.70;1.00;;;12.10;49.70;;;;;;5091127;28;20442;-65
2022/01/10 12:34:27;;;;;;;4.15;1.40;;;12.10;50.80;;;;;;5091705;28;20068;-67
2022/01/10 12:36:53;;;;;;;6.55;1.17;;;12.20;50.80;;;;;;5091833;28;20491;-64
2022/01/10 12:39:24;;;;;;;;;;;12.10;50.70;;;;;;5091186;28;20414;-64
2022/01/10 12:41:51;;;;;;;1.35;0.98;;;11.90;50.70;;;;;;5090393;28;20001;-65
2022/01/10 12:44:18;;;;;;;5.70;1.27;;;11.80;51.00;;;;;;5090604;28;20076;-66
2022/01/10 12:46:45;;;;;;;8.07;1.98;;;11.90;51.10;;;;;;5091561;28;20171;-66
2022/01/10 12:49:13;;;;;;;7.25;1.90;;;11.90;50.30;;;;;;5087745;28;20076;-64
2022/01/10 12:51:48;;;;;;;4.68;2.33;;;11.80;50.40;;;;;;5090290;28;20112;-63
2022/01/10 12:54:20;;;;;;;3.20;1.95;;;11.80;49.60;;;;;;5093181;28;20071;-65
2022/01/10 12:56:48;;;;;;;6.10;1.98;;;11.90;50.60;;;;;;5089243;28;20073;-64
2022/01/10 12:59:18;;;;;;;3.65;2.10;;;11.90;50.60;;;;;;5089907;28;20072;-64
2022/01/10 13:01:45;;;;;;;9.85;2.70;;;11.90;50.50;;;;;;5091142;28;20083;-65